sensor_id;sensor_type;location;lat;lon;timestamp;pressure;altitude;pressure_sealevel;temperature;humidity
30730;BME280;17476;48.458;7.928;2023-07-29T00:04:37;99429.59;;;19.13;100.00
30730;BME280;17476;48.458;7.928;2023-07-29T00:07:03;99433.38;;;19.17;100.00
30730;BME280;17476;48.458;7.928;2023-07-29T00:09:29;99429.59;;;19.13;100.00
30730;BME280;17476;48.458;7.928;2023-07-29T00:11:54;99427.50;;;19.15;100.00
30730;BME280;17476;48.458;7.928;2023-07-29T00:14:20;99427.50;;;19.15;100.00
30730;BME280;17476;48.458;7.928;2023-07-29T00:16:46;99430.72;;;19.17;100.00
30730;BME280;17476;48.458;7.928;2023-07-29T00:19:12;99426.03;;;19.19;100.00
30730;BME280;17476;48.458;7.928;2023-07-29T00:21:38;99431.19;;;19.14;100.00
30730;BME280;17476;48.458;7.928;2023-07-29T00:24:04;99430.75;;;19.05;100.00
30730;BME280;17476;48.458;7.928;2023-07-29T00:26:29;99424.53;;;19.11;100.00
30730;BME280;17476;48.458;7.928;2023-07-29T00:28:56;99424.16;;;19.19;100.00
30730;BME280;17476;48.458;7.928;2023-07-29T00:31:22;99421.97;;;19.16;100.00
30730;BME280;17476;48.458;7.928;2023-07-29T00:33:47;99424.53;;;19.11;100.00
30730;BME280;17476;48.458;7.928;2023-07-29T00:36:13;99413.69;;;19.13;100.00
30730;BME280;17476;48.458;7.928;2023-07-29T00:38:39;99416.34;;;19.13;100.00
30730;BME280;17476;48.458;7.928;2023-07-29T00:41:05;99422.56;;;19.06;100.00
30730;BME280;17476;48.458;7.928;2023-07-29T00:43:31;99405.72;;;19.13;100.00
30730;BME280;17476;48.458;7.928;2023-07-29T00:45:57;99410.22;;;19.12;100.00
30730;BME280;17476;48.458;7.928;2023-07-29T00:48:26;99416.91;;;19.15;100.00
30730;BME280;17476;48.458;7.928;2023-07-29T00:50:52;99424.50;;;19.23;100.00
30730;BME280;17476;48.458;7.928;2023-07-29T00:53:18;99417.03;;;19.20;100.00
30730;BME280;17476;48.458;7.928;2023-07-29T00:55:44;99418.50;;;19.16;100.00
30730;BME280;17476;48.458;7.928;2023-07-29T00:58:10;99409.06;;;19.08;100.00
30730;BME280;17476;48.458;7.928;2023-07-29T01:00:36;99403.66;;;19.15;100.00
30730;BME280;17476;48.458;7.928;2023-07-29T01:03:02;99401.25;;;19.13;100.00
30730;BME280;17476;48.458;7.928;2023-07-29T01:05:36;99396.38;;;19.10;100.00
30730;BME280;17476;48.458;7.928;2023-07-29T01:08:25;99392.84;;;19.04;100.00
30730;BME280;17476;48.458;7.928;2023-07-29T01:11:19;99382.69;;;19.01;100.00
30730;BME280;17476;48.458;7.928;2023-07-29T01:13:54;99385.00;;;18.98;100.00
30730;BME280;17476;48.458;7.928;2023-07-29T01:16:34;99385.56;;;19.00;100.00
30730;BME280;17476;48.458;7.928;2023-07-29T01:19:06;99386.75;;;18.92;100.00
30730;BME280;17476;48.458;7.928;2023-07-29T01:21:35;99385.81;;;18.87;100.00
30730;BME280;17476;48.458;7.928;2023-07-29T01:24:02;99382.00;;;18.94;100.00
30730;BME280;17476;48.458;7.928;2023-07-29T01:26:28;99377.06;;;18.86;100.00
30730;BME280;17476;48.458;7.928;2023-07-29T01:28:56;99376.25;;;18.86;100.00
30730;BME280;17476;48.458;7.928;2023-07-29T01:31:34;99377.50;;;18.83;100.00
30730;BME280;17476;48.458;7.928;2023-07-29T01:36:42;99376.38;;;18.91;100.00
30730;BME280;17476;48.458;7.928;2023-07-29T01:39:11;99367.03;;;18.88;100.00
30730;BME280;17476;48.458;7.928;2023-07-29T01:41:37;99375.44;;;18.85;100.00
30730;BME280;17476;48.458;7.928;2023-07-29T01:44:04;99374.97;;;18.88;100.00
30730;BME280;17476;48.458;7.928;2023-07-29T01:46:33;99373.72;;;18.79;100.00
30730;BME280;17476;48.458;7.928;2023-07-29T01:48:59;99371.63;;;18.81;100.00
30730;BME280;17476;48.458;7.928;2023-07-29T01:51:25;99376.59;;;18.77;100.00
30730;BME280;17476;48.458;7.928;2023-07-29T01:53:51;99382.59;;;18.73;100.00
30730;BME280;17476;48.458;7.928;2023-07-29T01:56:17;99384.75;;;18.76;100.00
30730;BME280;17476;48.458;7.928;2023-07-29T01:58:42;99378.78;;;18.80;100.00
30730;BME280;17476;48.458;7.928;2023-07-29T02:01:08;99370.16;;;18.85;100.00
30730;BME280;17476;48.458;7.928;2023-07-29T02:03:34;99369.44;;;18.90;100.00
30730;BME280;17476;48.458;7.928;2023-07-29T02:06:00;99373.13;;;18.89;100.00
30730;BME280;17476;48.458;7.928;2023-07-29T02:08:25;99366.22;;;18.76;100.00
30730;BME280;17476;48.458;7.928;2023-07-29T02:10:51;99360.34;;;18.74;100.00
30730;BME280;17476;48.458;7.928;2023-07-29T02:13:17;99357.13;;;18.72;100.00
30730;BME280;17476;48.458;7.928;2023-07-29T02:15:43;99370.41;;;18.84;100.00
30730;BME280;17476;48.458;7.928;2023-07-29T02:18:10;99361.97;;;18.87;100.00
30730;BME280;17476;48.458;7.928;2023-07-29T02:20:36;99363.25;;;18.84;100.00
30730;BME280;17476;48.458;7.928;2023-07-29T02:23:02;99370.72;;;18.87;100.00
30730;BME280;17476;48.458;7.928;2023-07-29T02:25:28;99364.50;;;18.93;100.00
30730;BME280;17476;48.458;7.928;2023-07-29T02:27:53;99364.03;;;18.96;100.00
30730;BME280;17476;48.458;7.928;2023-07-29T02:30:20;99362.53;;;18.89;100.00
30730;BME280;17476;48.458;7.928;2023-07-29T02:32:46;99358.38;;;18.93;100.00
30730;BME280;17476;48.458;7.928;2023-07-29T02:35:12;99359.06;;;18.88;100.00
30730;BME280;17476;48.458;7.928;2023-07-29T02:37:38;99352.53;;;18.91;100.00
30730;BME280;17476;48.458;7.928;2023-07-29T02:40:04;99352.28;;;18.92;100.00
30730;BME280;17476;48.458;7.928;2023-07-29T02:42:31;99352.53;;;18.91;100.00
30730;BME280;17476;48.458;7.928;2023-07-29T02:45:00;99346.63;;;18.89;100.00
30730;BME280;17476;48.458;7.928;2023-07-29T02:47:25;99345.72;;;18.83;100.00
30730;BME280;17476;48.458;7.928;2023-07-29T02:49:51;99347.34;;;18.84;100.00
30730;BME280;17476;48.458;7.928;2023-07-29T02:52:17;99344.91;;;18.82;100.00
30730;BME280;17476;48.458;7.928;2023-07-29T02:54:43;99344.00;;;18.77;100.00
30730;BME280;17476;48.458;7.928;2023-07-29T02:57:08;99336.28;;;18.87;100.00
30730;BME280;17476;48.458;7.928;2023-07-29T02:59:34;99330.28;;;18.92;100.00
30730;BME280;17476;48.458;7.928;2023-07-29T03:02:00;99338.00;;;18.93;100.00
30730;BME280;17476;48.458;7.928;2023-07-29T03:04:25;99345.72;;;18.95;100.00
30730;BME280;17476;48.458;7.928;2023-07-29T03:06:51;99369.78;;;18.93;100.00
30730;BME280;17476;48.458;7.928;2023-07-29T03:09:17;99386.19;;;18.90;100.00
30730;BME280;17476;48.458;7.928;2023-07-29T03:11:43;99387.78;;;18.91;100.00
30730;BME280;17476;48.458;7.928;2023-07-29T03:14:10;99399.06;;;18.87;100.00
30730;BME280;17476;48.458;7.928;2023-07-29T03:16:35;99394.81;;;18.97;100.00
30730;BME280;17476;48.458;7.928;2023-07-29T03:19:01;99391.22;;;19.03;100.00
30730;BME280;17476;48.458;7.928;2023-07-29T03:21:27;99388.09;;;19.06;100.00
30730;BME280;17476;48.458;7.928;2023-07-29T03:23:53;99368.75;;;19.06;100.00
30730;BME280;17476;48.458;7.928;2023-07-29T03:26:18;99371.63;;;19.04;100.00
30730;BME280;17476;48.458;7.928;2023-07-29T03:28:44;99361.25;;;19.03;100.00
30730;BME280;17476;48.458;7.928;2023-07-29T03:31:11;99370.59;;;18.94;100.00
30730;BME280;17476;48.458;7.928;2023-07-29T03:33:37;99360.81;;;18.94;100.00
30730;BME280;17476;48.458;7.928;2023-07-29T03:36:03;99348.25;;;18.90;100.00
30730;BME280;17476;48.458;7.928;2023-07-29T03:38:29;99342.72;;;18.91;100.00
30730;BME280;17476;48.458;7.928;2023-07-29T03:40:56;99345.72;;;18.95;100.00
30730;BME280;17476;48.458;7.928;2023-07-29T03:43:22;99335.34;;;18.93;100.00
30730;BME280;17476;48.458;7.928;2023-07-29T03:45:47;99345.38;;;18.91;100.00
30730;BME280;17476;48.458;7.928;2023-07-29T03:48:13;99344.34;;;18.92;100.00
30730;BME280;17476;48.458;7.928;2023-07-29T03:50:39;99347.00;;;18.92;100.00
30730;BME280;17476;48.458;7.928;2023-07-29T03:53:05;99349.53;;;18.99;100.00
30730;BME280;17476;48.458;7.928;2023-07-29T03:55:32;99343.66;;;18.97;100.00
30730;BME280;17476;48.458;7.928;2023-07-29T03:57:58;99340.75;;;18.98;100.00
30730;BME280;17476;48.458;7.928;2023-07-29T04:00:24;99346.50;;;18.95;100.00
30730;BME280;17476;48.458;7.928;2023-07-29T04:02:50;99350.09;;;19.01;100.00
30730;BME280;17476;48.458;7.928;2023-07-29T04:05:17;99331.28;;;19.02;100.00
30730;BME280;17476;48.458;7.928;2023-07-29T04:07:43;99344.78;;;19.01;100.00
30730;BME280;17476;48.458;7.928;2023-07-29T04:10:09;99338.22;;;19.03;100.00
30730;BME280;17476;48.458;7.928;2023-07-29T04:12:35;99340.63;;;19.05;100.00
30730;BME280;17476;48.458;7.928;2023-07-29T04:15:01;99347.31;;;19.07;100.00
30730;BME280;17476;48.458;7.928;2023-07-29T04:17:27;99352.84;;;19.06;100.00
30730;BME280;17476;48.458;7.928;2023-07-29T04:19:53;99347.88;;;19.09;100.00
30730;BME280;17476;48.458;7.928;2023-07-29T04:22:18;99346.25;;;19.08;100.00
30730;BME280;17476;48.458;7.928;2023-07-29T04:24:44;99345.69;;;19.06;100.00
30730;BME280;17476;48.458;7.928;2023-07-29T04:27:10;99345.31;;;19.15;100.00
30730;BME280;17476;48.458;7.928;2023-07-29T04:29:36;99351.66;;;19.25;100.00
30730;BME280;17476;48.458;7.928;2023-07-29T04:32:05;99353.03;;;19.28;100.00
30730;BME280;17476;48.458;7.928;2023-07-29T04:34:31;99355.69;;;19.28;100.00
30730;BME280;17476;48.458;7.928;2023-07-29T04:36:57;99349.44;;;19.34;100.00
30730;BME280;17476;48.458;7.928;2023-07-29T04:39:23;99342.28;;;19.34;100.00
30730;BME280;17476;48.458;7.928;2023-07-29T04:41:49;99345.50;;;19.36;100.00
30730;BME280;17476;48.458;7.928;2023-07-29T04:44:14;99343.66;;;19.37;100.00
30730;BME280;17476;48.458;7.928;2023-07-29T04:46:40;99359.94;;;19.29;100.00
30730;BME280;17476;48.458;7.928;2023-07-29T04:49:08;99355.69;;;19.28;100.00
30730;BME280;17476;48.458;7.928;2023-07-29T04:51:34;99367.56;;;19.25;100.00
30730;BME280;17476;48.458;7.928;2023-07-29T04:54:00;99366.97;;;19.23;100.00
30730;BME280;17476;48.458;7.928;2023-07-29T04:56:26;99358.22;;;19.23;100.00
30730;BME280;17476;48.458;7.928;2023-07-29T04:58:52;99362.03;;;19.27;100.00
30730;BME280;17476;48.458;7.928;2023-07-29T05:01:18;99359.63;;;19.25;100.00
30730;BME280;17476;48.458;7.928;2023-07-29T05:03:44;99367.31;;;19.27;100.00
30730;BME280;17476;48.458;7.928;2023-07-29T05:06:10;99370.78;;;19.27;100.00
30730;BME280;17476;48.458;7.928;2023-07-29T05:08:36;99375.75;;;19.24;100.00
30730;BME280;17476;48.458;7.928;2023-07-29T05:11:01;99380.69;;;19.32;100.00
30730;BME280;17476;48.458;7.928;2023-07-29T05:13:27;99379.16;;;19.48;100.00
30730;BME280;17476;48.458;7.928;2023-07-29T05:15:53;99378.56;;;19.57;100.00
30730;BME280;17476;48.458;7.928;2023-07-29T05:18:20;99375.75;;;19.64;100.00
30730;BME280;17476;48.458;7.928;2023-07-29T05:20:47;99385.53;;;19.75;100.00
30730;BME280;17476;48.458;7.928;2023-07-29T05:23:13;99387.38;;;19.75;100.00
30730;BME280;17476;48.458;7.928;2023-07-29T05:25:39;99396.94;;;19.76;100.00
30730;BME280;17476;48.458;7.928;2023-07-29T05:28:05;99395.03;;;19.71;100.00
30730;BME280;17476;48.458;7.928;2023-07-29T05:30:32;99378.88;;;19.73;100.00
30730;BME280;17476;48.458;7.928;2023-07-29T05:32:59;99381.97;;;19.70;100.00
30730;BME280;17476;48.458;7.928;2023-07-29T05:35:26;99372.28;;;19.75;100.00
30730;BME280;17476;48.458;7.928;2023-07-29T05:37:52;99387.09;;;19.88;100.00
30730;BME280;17476;48.458;7.928;2023-07-29T05:40:17;99398.75;;;19.87;100.00
30730;BME280;17476;48.458;7.928;2023-07-29T05:42:43;99399.31;;;19.89;100.00
30730;BME280;17476;48.458;7.928;2023-07-29T05:45:11;99412.97;;;19.81;100.00
30730;BME280;17476;48.458;7.928;2023-07-29T05:47:37;99419.47;;;19.73;100.00
30730;BME280;17476;48.458;7.928;2023-07-29T05:50:04;99426.38;;;19.74;100.00
30730;BME280;17476;48.458;7.928;2023-07-29T05:52:33;99419.22;;;19.75;100.00
30730;BME280;17476;48.458;7.928;2023-07-29T05:55:00;99426.25;;;19.81;100.00
30730;BME280;17476;48.458;7.928;2023-07-29T05:57:26;99424.59;;;19.92;100.00
30730;BME280;17476;48.458;7.928;2023-07-29T05:59:52;99421.75;;;19.81;100.00
30730;BME280;17476;48.458;7.928;2023-07-29T06:02:18;99418.69;;;19.61;100.00
30730;BME280;17476;48.458;7.928;2023-07-29T06:04:44;99414.78;;;19.52;100.00
30730;BME280;17476;48.458;7.928;2023-07-29T06:07:09;99405.19;;;19.51;100.00
30730;BME280;17476;48.458;7.928;2023-07-29T06:09:37;99397.22;;;19.51;100.00
30730;BME280;17476;48.458;7.928;2023-07-29T06:12:03;99400.13;;;19.49;100.00
30730;BME280;17476;48.458;7.928;2023-07-29T06:14:29;99389.66;;;19.43;100.00
30730;BME280;17476;48.458;7.928;2023-07-29T06:16:54;99410.41;;;19.46;100.00
30730;BME280;17476;48.458;7.928;2023-07-29T06:19:20;99436.00;;;19.52;100.00
30730;BME280;17476;48.458;7.928;2023-07-29T06:21:46;99434.47;;;19.56;100.00
30730;BME280;17476;48.458;7.928;2023-07-29T06:24:12;99426.03;;;19.71;100.00
30730;BME280;17476;48.458;7.928;2023-07-29T06:26:39;99417.81;;;19.84;100.00
30730;BME280;17476;48.458;7.928;2023-07-29T06:29:04;99421.13;;;19.91;100.00
30730;BME280;17476;48.458;7.928;2023-07-29T06:31:30;99428.63;;;19.94;100.00
30730;BME280;17476;48.458;7.928;2023-07-29T06:33:58;99430.72;;;19.92;100.00
30730;BME280;17476;48.458;7.928;2023-07-29T06:36:24;99431.28;;;19.94;100.00
30730;BME280;17476;48.458;7.928;2023-07-29T06:38:49;99434.91;;;20.05;100.00
30730;BME280;17476;48.458;7.928;2023-07-29T06:41:15;99433.59;;;20.19;100.00
30730;BME280;17476;48.458;7.928;2023-07-29T06:43:42;99431.66;;;20.31;100.00
30730;BME280;17476;48.458;7.928;2023-07-29T06:46:07;99415.22;;;20.46;100.00
30730;BME280;17476;48.458;7.928;2023-07-29T06:48:33;99419.41;;;20.59;100.00
30730;BME280;17476;48.458;7.928;2023-07-29T06:50:59;99419.41;;;20.76;100.00
30730;BME280;17476;48.458;7.928;2023-07-29T06:53:27;99415.88;;;20.87;100.00
30730;BME280;17476;48.458;7.928;2023-07-29T06:55:53;99415.53;;;21.00;100.00
30730;BME280;17476;48.458;7.928;2023-07-29T06:58:19;99403.69;;;21.13;100.00
30730;BME280;17476;48.458;7.928;2023-07-29T07:00:45;99402.66;;;21.31;100.00
30730;BME280;17476;48.458;7.928;2023-07-29T07:03:10;99399.69;;;21.49;100.00
30730;BME280;17476;48.458;7.928;2023-07-29T07:05:36;99392.84;;;21.80;100.00
30730;BME280;17476;48.458;7.928;2023-07-29T07:08:02;99406.88;;;21.97;100.00
30730;BME280;17476;48.458;7.928;2023-07-29T07:10:28;99405.50;;;22.17;100.00
30730;BME280;17476;48.458;7.928;2023-07-29T07:12:54;99407.44;;;22.26;100.00
30730;BME280;17476;48.458;7.928;2023-07-29T07:15:19;99409.56;;;22.24;100.00
30730;BME280;17476;48.458;7.928;2023-07-29T07:17:45;99410.69;;;22.33;100.00
30730;BME280;17476;48.458;7.928;2023-07-29T07:20:11;99412.81;;;22.31;100.00
30730;BME280;17476;48.458;7.928;2023-07-29T07:22:37;99417.88;;;22.33;100.00
30730;BME280;17476;48.458;7.928;2023-07-29T07:25:03;99410.09;;;22.26;99.97
30730;BME280;17476;48.458;7.928;2023-07-29T07:27:29;99415.34;;;22.16;96.22
30730;BME280;17476;48.458;7.928;2023-07-29T07:29:55;99414.13;;;22.07;95.89
30730;BME280;17476;48.458;7.928;2023-07-29T07:32:20;99417.41;;;22.09;96.99
30730;BME280;17476;48.458;7.928;2023-07-29T07:34:46;99414.03;;;22.19;97.91
30730;BME280;17476;48.458;7.928;2023-07-29T07:37:12;99419.63;;;22.17;96.48
30730;BME280;17476;48.458;7.928;2023-07-29T07:39:38;99424.22;;;22.27;97.99
30730;BME280;17476;48.458;7.928;2023-07-29T07:42:04;99419.78;;;22.38;97.71
30730;BME280;17476;48.458;7.928;2023-07-29T07:44:32;99429.97;;;22.46;96.89
30730;BME280;17476;48.458;7.928;2023-07-29T07:46:58;99418.38;;;22.62;96.80
30730;BME280;17476;48.458;7.928;2023-07-29T07:49:24;99421.19;;;22.82;97.51
30730;BME280;17476;48.458;7.928;2023-07-29T07:51:50;99422.69;;;23.00;97.41
30730;BME280;17476;48.458;7.928;2023-07-29T07:54:16;99421.44;;;23.18;97.33
30730;BME280;17476;48.458;7.928;2023-07-29T07:56:42;99412.16;;;23.26;95.52
30730;BME280;17476;48.458;7.928;2023-07-29T07:59:08;99418.66;;;23.45;94.06
30730;BME280;17476;48.458;7.928;2023-07-29T08:01:36;99416.81;;;23.51;93.99
30730;BME280;17476;48.458;7.928;2023-07-29T08:04:02;99400.84;;;23.61;93.27
30730;BME280;17476;48.458;7.928;2023-07-29T08:06:29;99405.47;;;23.96;91.88
30730;BME280;17476;48.458;7.928;2023-07-29T08:08:55;99414.84;;;24.24;90.90
30730;BME280;17476;48.458;7.928;2023-07-29T08:11:21;99410.59;;;24.38;86.56
30730;BME280;17476;48.458;7.928;2023-07-29T08:13:47;99404.72;;;24.62;86.84
30730;BME280;17476;48.458;7.928;2023-07-29T08:16:13;99411.63;;;25.09;84.19
30730;BME280;17476;48.458;7.928;2023-07-29T08:18:39;99414.97;;;25.50;81.36
30730;BME280;17476;48.458;7.928;2023-07-29T08:21:05;99423.72;;;25.76;79.00
30730;BME280;17476;48.458;7.928;2023-07-29T08:23:33;99417.75;;;25.89;78.51
30730;BME280;17476;48.458;7.928;2023-07-29T08:26:02;99422.81;;;25.96;78.75
30730;BME280;17476;48.458;7.928;2023-07-29T08:28:37;99418.81;;;26.27;74.00
30730;BME280;17476;48.458;7.928;2023-07-29T08:31:05;99419.97;;;26.55;75.92
30730;BME280;17476;48.458;7.928;2023-07-29T08:33:32;99433.72;;;26.78;73.68
30730;BME280;17476;48.458;7.928;2023-07-29T08:35:59;99441.69;;;26.59;73.61
30730;BME280;17476;48.458;7.928;2023-07-29T08:38:25;99442.31;;;26.46;74.56
30730;BME280;17476;48.458;7.928;2023-07-29T08:41:16;99435.72;;;26.28;74.18
30730;BME280;17476;48.458;7.928;2023-07-29T08:46:29;99434.16;;;25.67;75.29
30730;BME280;17476;48.458;7.928;2023-07-29T08:48:55;99454.78;;;25.67;78.88
30730;BME280;17476;48.458;7.928;2023-07-29T08:51:21;99450.25;;;25.72;76.95
30730;BME280;17476;48.458;7.928;2023-07-29T08:53:49;99446.25;;;25.65;78.56
30730;BME280;17476;48.458;7.928;2023-07-29T08:56:15;99455.34;;;25.64;77.23
30730;BME280;17476;48.458;7.928;2023-07-29T08:58:42;99440.94;;;25.49;75.95
30730;BME280;17476;48.458;7.928;2023-07-29T09:01:08;99443.88;;;25.53;75.58
30730;BME280;17476;48.458;7.928;2023-07-29T09:03:34;99428.06;;;25.62;74.82
30730;BME280;17476;48.458;7.928;2023-07-29T09:06:02;99429.69;;;25.52;75.31
30730;BME280;17476;48.458;7.928;2023-07-29T09:08:28;99410.44;;;25.45;75.19
30730;BME280;17476;48.458;7.928;2023-07-29T09:10:54;99417.44;;;25.41;77.71
30730;BME280;17476;48.458;7.928;2023-07-29T09:13:23;99414.19;;;25.44;76.45
30730;BME280;17476;48.458;7.928;2023-07-29T09:15:48;99417.84;;;25.64;75.84
30730;BME280;17476;48.458;7.928;2023-07-29T09:18:19;99415.78;;;26.00;74.03
30730;BME280;17476;48.458;7.928;2023-07-29T09:20:49;99419.38;;;26.29;73.77
30730;BME280;17476;48.458;7.928;2023-07-29T09:23:16;99411.13;;;26.55;73.54
30730;BME280;17476;48.458;7.928;2023-07-29T09:25:42;99416.75;;;26.82;74.23
30730;BME280;17476;48.458;7.928;2023-07-29T09:28:11;99405.81;;;26.79;71.72
30730;BME280;17476;48.458;7.928;2023-07-29T09:30:42;99389.84;;;26.92;71.05
30730;BME280;17476;48.458;7.928;2023-07-29T09:33:11;99395.22;;;27.40;66.38
30730;BME280;17476;48.458;7.928;2023-07-29T09:35:38;99397.19;;;27.78;66.63
30730;BME280;17476;48.458;7.928;2023-07-29T09:38:07;99404.66;;;27.99;63.23
30730;BME280;17476;48.458;7.928;2023-07-29T09:40:38;99411.75;;;27.29;66.32
30730;BME280;17476;48.458;7.928;2023-07-29T09:43:05;99406.16;;;27.25;70.61
30730;BME280;17476;48.458;7.928;2023-07-29T09:45:35;99406.59;;;27.32;62.66
30730;BME280;17476;48.458;7.928;2023-07-29T09:48:02;99413.97;;;27.21;64.70
30730;BME280;17476;48.458;7.928;2023-07-29T09:50:28;99423.75;;;27.12;64.09
30730;BME280;17476;48.458;7.928;2023-07-29T09:52:56;99415.94;;;26.87;63.53
30730;BME280;17476;48.458;7.928;2023-07-29T09:55:25;99411.47;;;26.77;61.97
30730;BME280;17476;48.458;7.928;2023-07-29T09:57:59;99404.56;;;26.95;63.36
30730;BME280;17476;48.458;7.928;2023-07-29T10:00:29;99418.22;;;26.99;61.17
30730;BME280;17476;48.458;7.928;2023-07-29T10:02:57;99416.16;;;27.19;61.36
30730;BME280;17476;48.458;7.928;2023-07-29T10:05:25;99422.78;;;27.27;62.44
30730;BME280;17476;48.458;7.928;2023-07-29T10:07:51;99424.66;;;27.27;61.00
30730;BME280;17476;48.458;7.928;2023-07-29T10:10:17;99434.56;;;27.02;62.63
30730;BME280;17476;48.458;7.928;2023-07-29T10:12:43;99440.59;;;26.89;62.55
30730;BME280;17476;48.458;7.928;2023-07-29T10:15:10;99425.44;;;27.03;61.96
30730;BME280;17476;48.458;7.928;2023-07-29T10:17:38;99432.66;;;27.03;61.38
30730;BME280;17476;48.458;7.928;2023-07-29T10:20:10;99425.91;;;27.34;60.55
30730;BME280;17476;48.458;7.928;2023-07-29T10:22:39;99431.00;;;27.36;58.23
30730;BME280;17476;48.458;7.928;2023-07-29T10:25:29;99425.25;;;27.66;55.26
30730;BME280;17476;48.458;7.928;2023-07-29T10:28:05;99422.81;;;27.46;56.32
30730;BME280;17476;48.458;7.928;2023-07-29T10:30:31;99428.81;;;27.14;56.75
30730;BME280;17476;48.458;7.928;2023-07-29T10:33:02;99423.47;;;27.38;55.31
30730;BME280;17476;48.458;7.928;2023-07-29T10:35:31;99412.53;;;27.53;54.91
30730;BME280;17476;48.458;7.928;2023-07-29T10:38:02;99408.88;;;27.87;56.91
30730;BME280;17476;48.458;7.928;2023-07-29T10:40:53;99411.41;;;27.97;55.38
30730;BME280;17476;48.458;7.928;2023-07-29T10:43:36;99420.50;;;28.20;53.50
30730;BME280;17476;48.458;7.928;2023-07-29T10:46:23;99419.19;;;28.36;54.01
30730;BME280;17476;48.458;7.928;2023-07-29T10:48:55;99419.81;;;28.28;53.22
30730;BME280;17476;48.458;7.928;2023-07-29T10:51:35;99416.19;;;28.38;53.77
30730;BME280;17476;48.458;7.928;2023-07-29T10:54:11;99423.38;;;28.42;51.77
30730;BME280;17476;48.458;7.928;2023-07-29T10:56:42;99421.84;;;28.17;52.01
30730;BME280;17476;48.458;7.928;2023-07-29T11:01:53;99427.03;;;28.14;51.14
30730;BME280;17476;48.458;7.928;2023-07-29T11:12:34;99422.69;;;27.80;52.62
30730;BME280;17476;48.458;7.928;2023-07-29T11:17:35;99424.50;;;27.61;50.11
30730;BME280;17476;48.458;7.928;2023-07-29T11:20:02;99428.41;;;27.73;50.74
30730;BME280;17476;48.458;7.928;2023-07-29T11:22:29;99426.47;;;27.98;50.57
30730;BME280;17476;48.458;7.928;2023-07-29T11:24:55;99423.97;;;28.01;49.34
30730;BME280;17476;48.458;7.928;2023-07-29T11:27:21;99422.38;;;28.00;50.02
30730;BME280;17476;48.458;7.928;2023-07-29T11:29:48;99433.00;;;27.73;50.01
30730;BME280;17476;48.458;7.928;2023-07-29T11:32:14;99426.22;;;27.75;50.67
30730;BME280;17476;48.458;7.928;2023-07-29T11:34:41;99424.63;;;27.74;50.77
30730;BME280;17476;48.458;7.928;2023-07-29T11:37:10;99427.47;;;27.83;50.27
30730;BME280;17476;48.458;7.928;2023-07-29T11:39:44;99426.16;;;27.99;50.13
30730;BME280;17476;48.458;7.928;2023-07-29T11:42:14;99422.94;;;28.16;47.68
30730;BME280;17476;48.458;7.928;2023-07-29T11:44:40;99413.09;;;28.12;47.15
30730;BME280;17476;48.458;7.928;2023-07-29T11:47:08;99406.91;;;28.63;46.95
30730;BME280;17476;48.458;7.928;2023-07-29T11:49:35;99411.47;;;29.22;45.38
30730;BME280;17476;48.458;7.928;2023-07-29T11:52:02;99412.28;;;29.09;43.42
30730;BME280;17476;48.458;7.928;2023-07-29T11:54:29;99403.78;;;29.29;43.90
30730;BME280;17476;48.458;7.928;2023-07-29T11:56:55;99413.94;;;29.46;43.09
30730;BME280;17476;48.458;7.928;2023-07-29T11:59:21;99416.16;;;29.17;44.26
30730;BME280;17476;48.458;7.928;2023-07-29T12:01:47;99414.16;;;29.36;45.09
30730;BME280;17476;48.458;7.928;2023-07-29T12:04:14;99411.53;;;28.90;45.28
30730;BME280;17476;48.458;7.928;2023-07-29T12:06:40;99413.00;;;28.68;46.41
30730;BME280;17476;48.458;7.928;2023-07-29T12:09:06;99400.84;;;28.38;45.52
30730;BME280;17476;48.458;7.928;2023-07-29T12:11:33;99410.22;;;28.41;46.77
30730;BME280;17476;48.458;7.928;2023-07-29T12:14:00;99415.19;;;28.34;45.71
30730;BME280;17476;48.458;7.928;2023-07-29T12:16:26;99413.00;;;28.36;46.31
30730;BME280;17476;48.458;7.928;2023-07-29T12:18:52;99406.19;;;28.57;46.74
30730;BME280;17476;48.458;7.928;2023-07-29T12:21:19;99404.66;;;28.51;47.49
30730;BME280;17476;48.458;7.928;2023-07-29T12:23:45;99403.44;;;28.43;46.88
30730;BME280;17476;48.458;7.928;2023-07-29T12:26:10;99404.72;;;28.13;47.43
30730;BME280;17476;48.458;7.928;2023-07-29T12:28:36;99409.50;;;28.16;46.47
30730;BME280;17476;48.458;7.928;2023-07-29T12:31:07;99404.91;;;27.84;46.81
30730;BME280;17476;48.458;7.928;2023-07-29T12:33:36;99402.09;;;28.08;46.15
30730;BME280;17476;48.458;7.928;2023-07-29T12:36:04;99399.25;;;28.37;45.57
30730;BME280;17476;48.458;7.928;2023-07-29T12:38:30;99405.03;;;28.77;46.26
30730;BME280;17476;48.458;7.928;2023-07-29T12:40:57;99400.56;;;28.72;45.12
30730;BME280;17476;48.458;7.928;2023-07-29T12:43:22;99394.66;;;28.70;45.23
30730;BME280;17476;48.458;7.928;2023-07-29T12:45:51;99400.66;;;28.81;46.15
30730;BME280;17476;48.458;7.928;2023-07-29T12:48:17;99396.94;;;28.77;46.12
30730;BME280;17476;48.458;7.928;2023-07-29T12:50:43;99394.81;;;29.06;44.77
30730;BME280;17476;48.458;7.928;2023-07-29T12:53:09;99394.91;;;29.15;43.31
30730;BME280;17476;48.458;7.928;2023-07-29T12:55:38;99378.28;;;29.13;44.60
30730;BME280;17476;48.458;7.928;2023-07-29T12:58:04;99381.44;;;29.15;44.41
30730;BME280;17476;48.458;7.928;2023-07-29T13:00:30;99386.72;;;29.34;47.13
30730;BME280;17476;48.458;7.928;2023-07-29T13:02:56;99375.03;;;29.25;44.01
30730;BME280;17476;48.458;7.928;2023-07-29T13:05:22;99375.63;;;29.49;43.78
30730;BME280;17476;48.458;7.928;2023-07-29T13:07:48;99374.25;;;29.24;44.79
30730;BME280;17476;48.458;7.928;2023-07-29T13:10:14;99379.94;;;29.36;44.91
30730;BME280;17476;48.458;7.928;2023-07-29T13:12:40;99384.19;;;29.65;43.50
30730;BME280;17476;48.458;7.928;2023-07-29T13:15:06;99370.53;;;29.48;43.95
30730;BME280;17476;48.458;7.928;2023-07-29T13:17:33;99363.06;;;29.31;43.60